createdAt,value
2018-03-02T00:00:31.953Z,0.00
2018-03-02T00:01:31.942Z,0.00
2018-03-02T00:02:31.957Z,0.00
2018-03-02T00:03:31.948Z,0.00
2018-03-02T00:04:31.957Z,0.00
2018-03-02T00:05:31.963Z,0.00
2018-03-02T00:06:31.966Z,0.00
2018-03-02T00:07:31.965Z,0.00
2018-03-02T00:08:31.970Z,0.00
2018-03-02T00:09:31.961Z,0.00
2018-03-02T00:10:31.977Z,0.00
2018-03-02T00:11:31.975Z,0.00
2018-03-02T00:12:31.967Z,0.00
2018-03-02T00:13:31.979Z,0.00
2018-03-02T00:14:31.969Z,0.00
2018-03-02T00:15:31.986Z,0.00
2018-03-02T00:16:31.978Z,0.00
2018-03-02T00:17:31.983Z,0.00
2018-03-02T00:18:31.986Z,0.00
2018-03-02T00:19:31.989Z,0.00
2018-03-02T00:20:31.987Z,0.00
2018-03-02T00:21:32.004Z,0.00
2018-03-02T00:22:31.992Z,0.00
2018-03-02T00:23:32.005Z,0.00
2018-03-02T00:24:32.006Z,0.00
2018-03-02T00:25:32.009Z,0.00
2018-03-02T00:26:32.006Z,0.00
2018-03-02T00:27:32.009Z,0.00
2018-03-02T00:28:32.007Z,0.00
2018-03-02T00:29:32.007Z,0.00
2018-03-02T00:30:32.030Z,0.00
2018-03-02T00:31:32.021Z,0.00
2018-03-02T00:32:32.023Z,0.00
2018-03-02T00:33:32.017Z,0.00
2018-03-02T00:34:32.028Z,0.00
2018-03-02T00:35:32.024Z,0.00
2018-03-02T00:36:32.030Z,0.00
2018-03-02T00:37:32.032Z,0.00
2018-03-02T00:38:32.045Z,0.00
2018-03-02T00:39:32.037Z,0.00
2018-03-02T00:40:32.045Z,0.00
2018-03-02T00:41:32.033Z,0.00
2018-03-02T00:42:32.052Z,0.00
2018-03-02T00:43:32.042Z,0.00
2018-03-02T00:44:32.037Z,0.00
2018-03-02T00:45:32.052Z,0.00
2018-03-02T00:46:32.041Z,0.00
2018-03-02T00:47:32.054Z,0.00
2018-03-02T00:48:32.054Z,0.00
2018-03-02T00:49:32.055Z,0.00
2018-03-02T00:50:32.058Z,0.00
2018-03-02T00:51:32.065Z,0.00
2018-03-02T00:52:32.073Z,0.00
2018-03-02T00:53:32.071Z,0.00
2018-03-02T00:54:32.067Z,0.00
2018-03-02T00:55:32.074Z,0.00
2018-03-02T00:56:32.071Z,0.00
2018-03-02T00:57:32.063Z,0.00
2018-03-02T00:58:32.078Z,0.00
2018-03-02T00:59:32.073Z,0.00
2018-03-02T01:00:32.080Z,0.00
2018-03-02T01:01:32.079Z,0.00
2018-03-02T01:02:32.094Z,0.00
2018-03-02T01:03:32.083Z,0.00
2018-03-02T01:04:32.093Z,0.00
2018-03-02T01:05:32.084Z,0.00
2018-03-02T01:06:32.090Z,0.00
2018-03-02T01:07:32.093Z,0.00
2018-03-02T01:08:32.091Z,0.00
2018-03-02T01:09:32.105Z,0.00
2018-03-02T01:10:32.094Z,0.00
2018-03-02T01:11:32.117Z,0.00
2018-03-02T01:12:32.103Z,0.00
2018-03-02T01:13:32.110Z,0.00
2018-03-02T01:14:32.111Z,0.00
2018-03-02T01:15:32.110Z,0.00
2018-03-02T01:16:32.111Z,0.00
2018-03-02T01:17:32.109Z,0.00
2018-03-02T01:18:32.115Z,0.00
2018-03-02T01:19:32.116Z,0.00
2018-03-02T01:20:32.127Z,0.00
2018-03-02T01:21:32.118Z,0.00
2018-03-02T01:22:32.129Z,0.00
2018-03-02T01:23:32.126Z,0.00
2018-03-02T01:24:32.130Z,0.00
2018-03-02T01:25:32.136Z,0.00
2018-03-02T01:26:32.139Z,0.00
2018-03-02T01:27:32.138Z,0.00
2018-03-02T01:28:32.144Z,0.00
2018-03-02T01:29:32.136Z,0.00
2018-03-02T01:30:32.137Z,0.00
2018-03-02T01:31:32.143Z,0.00
2018-03-02T01:32:32.140Z,0.00
2018-03-02T01:33:32.153Z,0.00
2018-03-02T01:34:32.148Z,0.00
2018-03-02T01:35:32.155Z,0.00
2018-03-02T01:36:32.153Z,0.00
2018-03-02T01:37:32.157Z,0.00
2018-03-02T01:38:32.158Z,0.00
2018-03-02T01:39:32.156Z,0.00
2018-03-02T01:40:32.159Z,0.00
2018-03-02T01:41:32.159Z,0.00
2018-03-02T01:42:32.166Z,0.00
2018-03-02T01:43:32.166Z,0.00
2018-03-02T01:44:32.174Z,0.00
2018-03-02T01:45:32.171Z,0.00
2018-03-02T01:46:32.184Z,0.00
2018-03-02T01:47:32.182Z,0.00
2018-03-02T01:48:32.168Z,0.00
2018-03-02T01:49:32.184Z,0.00
2018-03-02T01:50:32.188Z,0.00
2018-03-02T01:51:32.193Z,0.00
2018-03-02T01:52:32.184Z,0.00
2018-03-02T01:53:32.192Z,0.00
2018-03-02T01:54:32.190Z,0.00
2018-03-02T01:55:32.198Z,0.00
2018-03-02T01:56:32.194Z,0.00
2018-03-02T01:57:32.187Z,0.00
2018-03-02T01:58:32.202Z,0.00
2018-03-02T01:59:32.194Z,0.00
2018-03-02T02:00:32.207Z,0.00
2018-03-02T02:01:32.202Z,0.00
2018-03-02T02:02:32.205Z,0.00
2018-03-02T02:03:32.206Z,0.00
2018-03-02T02:04:32.214Z,0.00
2018-03-02T02:05:32.206Z,0.00
2018-03-02T02:06:32.207Z,0.00
2018-03-02T02:07:32.210Z,0.00
2018-03-02T02:08:32.207Z,0.00
2018-03-02T02:09:32.222Z,0.00
2018-03-02T02:10:32.216Z,0.00
2018-03-02T02:11:32.227Z,0.00
2018-03-02T02:12:32.221Z,0.00
2018-03-02T02:13:32.226Z,0.00
2018-03-02T02:14:32.232Z,0.00
2018-03-02T02:15:32.225Z,0.00
2018-03-02T02:16:32.228Z,0.00
2018-03-02T02:17:32.228Z,0.00
2018-03-02T02:18:32.235Z,0.00
2018-03-02T02:19:32.233Z,0.00
2018-03-02T02:20:32.244Z,0.00
2018-03-02T02:21:32.238Z,0.00
2018-03-02T02:22:32.237Z,0.00
2018-03-02T02:23:32.245Z,0.00
2018-03-02T02:24:32.239Z,0.00
2018-03-02T02:25:32.251Z,0.00
2018-03-02T02:26:32.248Z,0.00
2018-03-02T02:27:32.256Z,0.00
2018-03-02T02:28:32.253Z,0.00
2018-03-02T02:29:32.259Z,0.00
2018-03-02T02:30:32.259Z,0.00
2018-03-02T02:31:32.249Z,0.00
2018-03-02T02:32:32.262Z,0.00
2018-03-02T02:33:32.259Z,0.00
2018-03-02T02:34:32.265Z,0.00
2018-03-02T02:35:32.264Z,0.00
2018-03-02T02:36:32.283Z,0.00
2018-03-02T02:37:32.268Z,0.00
2018-03-02T02:38:32.265Z,0.00
2018-03-02T02:39:32.282Z,0.00
2018-03-02T02:40:32.285Z,0.00
2018-03-02T02:41:32.279Z,0.00
2018-03-02T02:42:32.272Z,0.00
2018-03-02T02:43:32.290Z,0.00
2018-03-02T02:44:32.280Z,0.00
2018-03-02T02:45:32.281Z,0.00
2018-03-02T02:46:32.289Z,0.00
2018-03-02T02:47:32.280Z,0.00
2018-03-02T02:48:32.288Z,0.00
2018-03-02T02:49:32.302Z,0.00
2018-03-02T02:50:32.293Z,0.00
2018-03-02T02:51:32.293Z,0.00
2018-03-02T02:52:32.294Z,0.00
2018-03-02T02:53:32.299Z,0.00
2018-03-02T02:54:32.297Z,0.00
2018-03-02T02:55:32.300Z,0.00
2018-03-02T02:56:32.298Z,0.00
2018-03-02T02:57:32.309Z,0.00
2018-03-02T02:58:32.302Z,0.00
2018-03-02T02:59:32.301Z,0.00
2018-03-02T03:00:32.310Z,0.00
2018-03-02T03:01:32.303Z,0.00
2018-03-02T03:02:32.332Z,0.00
2018-03-02T03:03:32.313Z,0.00
2018-03-02T03:04:32.306Z,0.00
2018-03-02T03:05:32.318Z,0.00
2018-03-02T03:06:32.321Z,0.00
2018-03-02T03:07:32.322Z,0.00
2018-03-02T03:08:32.318Z,0.00
2018-03-02T03:09:32.328Z,0.00
2018-03-02T03:10:32.325Z,0.00
2018-03-02T03:11:32.332Z,0.00
2018-03-02T03:12:32.329Z,0.00
2018-03-02T03:13:32.327Z,0.00
2018-03-02T03:14:32.333Z,0.00
2018-03-02T03:15:32.333Z,0.00
2018-03-02T03:16:32.353Z,0.00
2018-03-02T03:17:32.334Z,0.00
2018-03-02T03:18:32.334Z,0.00
2018-03-02T03:19:32.338Z,0.00
2018-03-02T03:20:32.337Z,0.00
2018-03-02T03:21:32.346Z,0.00
2018-03-02T03:22:32.340Z,0.00
2018-03-02T03:23:32.354Z,0.00
2018-03-02T03:24:32.351Z,0.00
2018-03-02T03:25:32.343Z,0.00
2018-03-02T03:26:32.361Z,0.00
2018-03-02T03:27:32.352Z,0.00
2018-03-02T03:28:32.354Z,0.00
2018-03-02T03:29:32.355Z,0.00
2018-03-02T03:30:32.362Z,0.00
2018-03-02T03:31:32.365Z,0.00
2018-03-02T03:32:32.356Z,0.00
2018-03-02T03:33:32.362Z,0.00
2018-03-02T03:34:32.364Z,0.00
2018-03-02T03:35:32.368Z,0.00
2018-03-02T03:36:32.365Z,0.00
2018-03-02T03:37:32.367Z,0.00
2018-03-02T03:38:32.368Z,0.00
2018-03-02T03:39:32.368Z,0.00
2018-03-02T03:40:32.378Z,0.00
2018-03-02T03:41:32.372Z,0.00
2018-03-02T03:42:32.387Z,0.00
2018-03-02T03:43:32.382Z,0.00
2018-03-02T03:44:32.375Z,0.00
2018-03-02T03:45:32.387Z,0.00
2018-03-02T03:46:32.379Z,0.00
2018-03-02T03:47:32.392Z,0.00
2018-03-02T03:48:32.388Z,0.00
2018-03-02T03:49:32.385Z,0.00
2018-03-02T03:50:32.391Z,0.00
2018-03-02T03:51:32.384Z,0.00
2018-03-02T03:52:32.398Z,0.00
2018-03-02T03:53:32.394Z,0.00
2018-03-02T03:54:32.400Z,0.00
2018-03-02T03:55:32.401Z,0.00
2018-03-02T03:56:32.398Z,0.00
2018-03-02T03:57:32.402Z,0.00
2018-03-02T03:58:32.401Z,0.00
2018-03-02T03:59:32.409Z,0.00
2018-03-02T04:00:32.414Z,0.00
2018-03-02T04:01:32.415Z,0.00
2018-03-02T04:02:32.411Z,0.00
2018-03-02T04:03:32.404Z,0.00
2018-03-02T04:04:32.412Z,0.00
2018-03-02T04:05:32.414Z,0.00
2018-03-02T04:06:32.421Z,0.00
2018-03-02T04:07:32.442Z,0.00
2018-03-02T04:08:32.416Z,0.00
2018-03-02T04:09:32.420Z,0.00
2018-03-02T04:10:32.420Z,0.00
2018-03-02T04:11:32.430Z,0.00
2018-03-02T04:12:32.421Z,0.00
2018-03-02T04:13:32.422Z,0.00
2018-03-02T04:14:32.432Z,0.00
2018-03-02T04:15:32.430Z,0.00
2018-03-02T04:16:32.437Z,0.00
2018-03-02T04:17:32.429Z,0.00
2018-03-02T04:18:32.431Z,0.00
2018-03-02T04:19:32.435Z,0.00
2018-03-02T04:20:32.436Z,0.00
2018-03-02T04:21:32.444Z,0.00
2018-03-02T04:22:32.435Z,0.00
2018-03-02T04:23:32.463Z,0.00
2018-03-02T04:24:32.444Z,0.00
2018-03-02T04:25:32.440Z,0.00
2018-03-02T04:26:32.452Z,0.00
2018-03-02T04:27:32.457Z,0.00
2018-03-02T04:28:32.452Z,0.00
2018-03-02T04:29:32.452Z,0.00
2018-03-02T04:30:32.444Z,0.00
2018-03-02T04:31:32.456Z,0.00
2018-03-02T04:32:32.456Z,0.00
2018-03-02T04:33:32.462Z,0.00
2018-03-02T04:34:32.473Z,0.00
2018-03-02T04:35:32.452Z,0.00
2018-03-02T04:36:32.459Z,0.00
2018-03-02T04:37:32.459Z,0.00
2018-03-02T04:38:32.465Z,0.00
2018-03-02T04:39:32.466Z,0.00
2018-03-02T04:40:32.464Z,0.00
2018-03-02T04:41:32.475Z,0.00
2018-03-02T04:42:32.467Z,0.00
2018-03-02T04:43:32.480Z,0.00
2018-03-02T04:44:32.468Z,0.00
2018-03-02T04:45:32.484Z,0.00
2018-03-02T04:46:32.475Z,0.00
2018-03-02T04:47:32.484Z,0.00
2018-03-02T04:48:32.484Z,0.00
2018-03-02T04:49:32.476Z,0.00
2018-03-02T04:50:32.490Z,0.00
2018-03-02T04:51:32.483Z,0.00
2018-03-02T04:52:32.479Z,0.00
2018-03-02T04:53:32.503Z,0.00
2018-03-02T04:54:32.481Z,0.00
2018-03-02T04:55:32.494Z,0.00
2018-03-02T04:56:32.492Z,0.00
2018-03-02T04:57:32.494Z,0.00
2018-03-02T04:58:32.503Z,0.00
2018-03-02T04:59:32.490Z,0.00
2018-03-02T05:00:32.500Z,0.00
2018-03-02T05:01:32.500Z,0.00
2018-03-02T05:02:32.516Z,0.00
2018-03-02T05:03:32.507Z,0.00
2018-03-02T05:04:32.506Z,0.00
2018-03-02T05:05:32.508Z,0.00
2018-03-02T05:06:32.509Z,0.00
2018-03-02T05:07:32.514Z,0.00
2018-03-02T05:08:32.509Z,0.00
2018-03-02T05:09:32.510Z,0.00
2018-03-02T05:10:32.512Z,0.00
2018-03-02T05:11:32.512Z,0.00
2018-03-02T05:12:32.520Z,0.00
2018-03-02T05:13:32.518Z,0.00
2018-03-02T05:14:32.518Z,0.00
2018-03-02T05:15:32.521Z,0.00
2018-03-02T05:16:32.517Z,0.00
2018-03-02T05:17:32.530Z,4.00
2018-03-02T05:18:32.519Z,4.00
2018-03-02T05:19:32.533Z,0.00
2018-03-02T05:20:32.530Z,4.00
2018-03-02T05:21:32.521Z,4.00
2018-03-02T05:22:32.537Z,4.00
2018-03-02T05:23:32.526Z,4.00
2018-03-02T05:24:32.547Z,8.00
2018-03-02T05:25:32.538Z,8.00
2018-03-02T05:26:32.535Z,8.00
2018-03-02T05:27:32.546Z,12.00
2018-03-02T05:28:32.540Z,12.00
2018-03-02T05:29:32.545Z,12.00
2018-03-02T05:30:32.544Z,16.00
2018-03-02T05:31:32.553Z,20.00
2018-03-02T05:32:32.544Z,20.00
2018-03-02T05:33:32.545Z,28.00
2018-03-02T05:34:32.552Z,32.00
2018-03-02T05:35:32.552Z,36.00
2018-03-02T05:36:32.549Z,40.00
2018-03-02T05:37:32.553Z,44.00
2018-03-02T05:38:32.554Z,52.00
2018-03-02T05:39:32.562Z,60.00
2018-03-02T05:40:32.556Z,68.00
2018-03-02T05:41:32.558Z,80.00
2018-03-02T05:42:32.562Z,92.00
2018-03-02T05:43:32.560Z,104.00
2018-03-02T05:44:32.568Z,112.00
2018-03-02T05:45:32.560Z,132.00
2018-03-02T05:46:32.564Z,144.00
2018-03-02T05:47:32.568Z,164.00
2018-03-02T05:48:32.568Z,180.00
2018-03-02T05:49:32.593Z,196.00
2018-03-02T05:50:32.571Z,220.00
2018-03-02T05:51:32.581Z,240.00
2018-03-02T05:52:32.590Z,264.00
2018-03-02T05:53:32.586Z,288.00
2018-03-02T05:54:32.582Z,312.00
2018-03-02T05:55:32.577Z,340.00
2018-03-02T05:56:32.572Z,368.00
2018-03-02T05:57:32.584Z,400.00
2018-03-02T05:58:32.577Z,428.00
2018-03-02T05:59:32.592Z,460.00
2018-03-02T06:00:32.588Z,496.00
2018-03-02T06:01:32.592Z,528.00
2018-03-02T06:02:32.594Z,560.00
2018-03-02T06:03:32.588Z,600.00
2018-03-02T06:04:32.592Z,636.00
2018-03-02T06:05:32.592Z,676.00
2018-03-02T06:06:32.611Z,716.00
2018-03-02T06:07:32.614Z,752.00
2018-03-02T06:08:32.596Z,800.00
2018-03-02T06:09:32.604Z,840.00
2018-03-02T06:10:32.600Z,888.00
2018-03-02T06:11:32.614Z,932.00
2018-03-02T06:12:32.606Z,980.00
2018-03-02T06:13:32.598Z,1028.00
2018-03-02T06:14:32.614Z,1076.00
2018-03-02T06:15:32.604Z,1128.00
2018-03-02T06:16:32.637Z,1176.00
2018-03-02T06:17:32.611Z,1232.00
2018-03-02T06:18:32.606Z,1284.00
2018-03-02T06:19:32.619Z,1336.00
2018-03-02T06:20:32.619Z,1384.00
2018-03-02T06:21:32.620Z,1436.00
2018-03-02T06:22:32.618Z,1492.00
2018-03-02T06:23:32.624Z,1552.00
2018-03-02T06:24:32.620Z,1608.00
2018-03-02T06:25:32.621Z,1652.00
2018-03-02T06:26:32.632Z,1708.00
2018-03-02T06:27:32.625Z,1768.00
2018-03-02T06:28:32.639Z,1832.00
2018-03-02T06:29:32.627Z,1892.00
2018-03-02T06:30:32.633Z,1948.00
2018-03-02T06:31:32.634Z,2008.00
2018-03-02T06:32:32.629Z,2064.00
2018-03-02T06:33:32.643Z,2108.00
2018-03-02T06:34:32.638Z,2160.00
2018-03-02T06:35:32.647Z,2216.00
2018-03-02T06:36:32.643Z,2280.00
2018-03-02T06:37:32.636Z,2340.00
2018-03-02T06:38:32.654Z,2400.00
2018-03-02T06:39:32.643Z,2460.00
2018-03-02T06:40:32.655Z,2520.00
2018-03-02T06:41:32.652Z,2576.00
2018-03-02T06:42:32.644Z,2636.00
2018-03-02T06:43:32.657Z,2692.00
2018-03-02T06:44:32.654Z,2736.00
2018-03-02T06:45:32.658Z,2788.00
2018-03-02T06:46:32.661Z,2844.00
2018-03-02T06:47:32.665Z,2904.00
2018-03-02T06:48:32.658Z,2976.00
2018-03-02T06:49:32.659Z,3052.00
2018-03-02T06:50:32.677Z,3116.00
2018-03-02T06:51:32.678Z,3136.00
2018-03-02T06:52:32.676Z,3132.00
2018-03-02T06:53:32.667Z,3140.00
2018-03-02T06:54:32.678Z,3192.00
2018-03-02T06:55:32.671Z,3268.00
2018-03-02T06:56:32.667Z,3356.00
2018-03-02T06:57:32.683Z,3424.00
2018-03-02T06:58:32.673Z,3452.00
2018-03-02T06:59:32.688Z,3480.00
2018-03-02T07:00:32.682Z,3524.00
2018-03-02T07:01:32.713Z,3560.00
2018-03-02T07:02:32.689Z,3616.00
2018-03-02T07:03:32.694Z,3676.00
2018-03-02T07:04:32.688Z,3744.00
2018-03-02T07:05:32.742Z,3788.00
2018-03-02T07:06:32.699Z,3820.00
2018-03-02T07:07:32.693Z,3876.00
2018-03-02T07:08:32.707Z,3948.00
2018-03-02T07:09:32.698Z,3992.00
2018-03-02T07:10:32.712Z,4036.00
2018-03-02T07:11:32.702Z,4064.00
2018-03-02T07:12:32.712Z,4108.00
2018-03-02T07:13:32.731Z,4136.00
2018-03-02T07:14:32.706Z,4188.00
2018-03-02T07:15:32.715Z,4216.00
2018-03-02T07:16:32.712Z,4256.00
2018-03-02T07:17:32.719Z,4312.00
2018-03-02T07:18:32.720Z,4352.00
2018-03-02T07:19:32.723Z,4404.00
2018-03-02T07:20:32.719Z,4508.00
2018-03-02T07:21:32.732Z,4592.00
2018-03-02T07:22:32.722Z,4576.00
2018-03-02T07:23:32.740Z,4572.00
2018-03-02T07:24:32.990Z,4604.00
2018-03-02T07:25:32.726Z,4624.00
2018-03-02T07:26:32.752Z,4660.00
2018-03-02T07:27:32.777Z,4708.00
2018-03-02T07:28:32.743Z,4724.00
2018-03-02T07:29:32.741Z,4720.00
2018-03-02T07:30:32.745Z,4780.00
2018-03-02T07:31:32.746Z,4812.00
2018-03-02T07:32:32.757Z,4852.00
2018-03-02T07:33:32.750Z,4892.00
2018-03-02T07:34:32.757Z,4908.00
2018-03-02T07:35:32.751Z,4936.00
2018-03-02T07:36:32.760Z,4968.00
2018-03-02T07:37:32.760Z,4988.00
2018-03-02T07:38:32.767Z,5012.00
2018-03-02T07:39:32.768Z,5020.00
2018-03-02T07:40:32.766Z,5052.00
2018-03-02T07:41:32.772Z,5084.00
2018-03-02T07:42:32.774Z,5108.00
2018-03-02T07:43:32.772Z,5156.00
2018-03-02T07:44:32.774Z,5164.00
2018-03-02T07:45:32.784Z,5168.00
2018-03-02T07:46:32.774Z,5228.00
2018-03-02T07:47:32.788Z,5288.00
2018-03-02T07:48:32.787Z,5328.00
2018-03-02T07:49:32.787Z,5360.00
2018-03-02T07:50:32.794Z,5368.00
2018-03-02T07:51:32.796Z,5412.00
2018-03-02T07:52:32.791Z,5408.00
2018-03-02T07:53:32.804Z,5424.00
2018-03-02T07:54:32.799Z,5432.00
2018-03-02T07:55:32.807Z,5420.00
2018-03-02T07:56:32.803Z,5436.00
2018-03-02T07:57:32.810Z,5492.00
2018-03-02T07:58:32.816Z,5476.00
2018-03-02T07:59:32.818Z,5476.00
2018-03-02T08:00:32.812Z,5520.00
2018-03-02T08:01:32.828Z,5580.00
2018-03-02T08:02:32.818Z,5636.00
2018-03-02T08:03:32.832Z,5620.00
2018-03-02T08:04:32.828Z,5640.00
2018-03-02T08:05:32.833Z,5672.00
2018-03-02T08:06:32.829Z,5716.00
2018-03-02T08:07:32.835Z,5716.00
2018-03-02T08:08:32.832Z,5708.00
2018-03-02T08:09:32.850Z,5704.00
2018-03-02T08:10:32.840Z,5688.00
2018-03-02T08:11:32.851Z,5700.00
2018-03-02T08:12:32.861Z,5688.00
2018-03-02T08:13:32.853Z,5720.00
2018-03-02T08:14:32.863Z,5812.00
2018-03-02T08:15:32.857Z,5792.00
2018-03-02T08:16:32.865Z,5796.00
2018-03-02T08:17:32.865Z,5828.00
2018-03-02T08:18:32.876Z,5820.00
2018-03-02T08:19:32.868Z,5872.00
2018-03-02T08:20:32.878Z,5888.00
2018-03-02T08:21:32.879Z,5944.00
2018-03-02T08:22:32.881Z,5956.00
2018-03-02T08:23:32.881Z,5980.00
2018-03-02T08:24:32.892Z,5992.00
2018-03-02T08:25:32.892Z,5992.00
2018-03-02T08:26:32.898Z,5940.00
2018-03-02T08:27:32.903Z,6000.00
2018-03-02T08:28:32.900Z,6032.00
2018-03-02T08:29:32.911Z,6016.00
2018-03-02T08:30:32.903Z,6056.00
2018-03-02T08:31:32.916Z,6096.00
2018-03-02T08:32:32.915Z,6144.00
2018-03-02T08:33:32.916Z,6096.00
2018-03-02T08:34:32.917Z,6040.00
2018-03-02T08:35:32.923Z,6036.00
2018-03-02T08:36:32.920Z,6080.00
2018-03-02T08:37:32.931Z,6136.00
2018-03-02T08:38:32.941Z,6152.00
2018-03-02T08:39:32.938Z,6180.00
2018-03-02T08:40:32.947Z,6184.00
2018-03-02T08:41:32.939Z,6196.00
2018-03-02T08:42:32.951Z,6188.00
2018-03-02T08:43:32.958Z,6192.00
2018-03-02T08:44:32.955Z,6216.00
2018-03-02T08:45:32.965Z,6264.00
2018-03-02T08:46:32.958Z,6304.00
2018-03-02T08:47:32.984Z,6284.00
2018-03-02T08:48:32.967Z,6312.00
2018-03-02T08:49:32.973Z,6292.00
2018-03-02T08:50:32.985Z,6312.00
2018-03-02T08:51:32.979Z,6316.00
2018-03-02T08:52:32.987Z,6336.00
2018-03-02T08:53:32.988Z,6348.00
2018-03-02T08:54:32.996Z,6300.00
2018-03-02T08:55:32.991Z,6368.00
2018-03-02T08:56:33.000Z,6376.00
2018-03-02T08:57:33.004Z,6396.00
2018-03-02T08:58:33.026Z,6408.00
2018-03-02T08:59:33.020Z,6440.00
2018-03-02T09:00:33.011Z,6492.00
2018-03-02T09:01:33.020Z,6544.00
2018-03-02T09:02:33.024Z,6524.00
2018-03-02T09:03:33.025Z,6580.00
2018-03-02T09:04:33.034Z,6620.00
2018-03-02T09:05:33.086Z,6708.00
2018-03-02T09:06:33.038Z,6724.00
2018-03-02T09:07:33.049Z,6712.00
2018-03-02T09:08:33.040Z,6664.00
2018-03-02T09:09:33.057Z,6588.00
2018-03-02T09:10:33.049Z,6684.00
2018-03-02T09:11:33.061Z,6632.00
2018-03-02T09:12:33.070Z,6636.00
2018-03-02T09:13:33.065Z,6648.00
2018-03-02T09:14:33.075Z,6612.00
2018-03-02T09:15:33.078Z,6664.00
2018-03-02T09:16:33.077Z,6708.00
2018-03-02T09:17:33.086Z,6828.00
2018-03-02T09:18:33.082Z,6748.00
2018-03-02T09:19:33.097Z,6772.00
2018-03-02T09:20:33.106Z,6736.00
2018-03-02T09:21:33.094Z,6700.00
2018-03-02T09:22:33.106Z,6776.00
2018-03-02T09:23:33.110Z,6832.00
2018-03-02T09:24:33.106Z,6744.00
2018-03-02T09:25:33.120Z,6852.00
2018-03-02T09:26:33.126Z,6832.00
2018-03-02T09:27:33.126Z,6852.00
2018-03-02T09:28:33.136Z,6820.00
2018-03-02T09:29:33.128Z,6816.00
2018-03-02T09:30:33.152Z,6784.00
2018-03-02T09:31:33.144Z,6768.00
2018-03-02T09:32:33.142Z,6916.00
2018-03-02T09:33:33.153Z,6920.00
2018-03-02T09:34:33.163Z,7052.00
2018-03-02T09:35:33.165Z,6984.00
2018-03-02T09:36:33.170Z,6916.00
2018-03-02T09:37:33.174Z,6872.00
2018-03-02T09:38:33.176Z,6828.00
2018-03-02T09:39:33.179Z,6876.00
2018-03-02T09:40:33.196Z,6924.00
2018-03-02T09:41:33.196Z,6932.00
2018-03-02T09:42:33.198Z,6824.00
2018-03-02T09:43:33.205Z,6916.00
2018-03-02T09:44:33.201Z,6944.00
2018-03-02T09:45:33.205Z,7036.00
2018-03-02T09:46:33.221Z,7024.00
2018-03-02T09:47:33.214Z,7092.00
2018-03-02T09:48:33.235Z,7004.00
2018-03-02T09:49:33.236Z,7048.00
2018-03-02T09:50:33.226Z,7160.00
2018-03-02T09:51:33.240Z,7160.00
2018-03-02T09:52:33.254Z,7120.00
2018-03-02T09:53:33.239Z,7060.00
2018-03-02T09:54:33.253Z,7124.00
2018-03-02T09:55:33.264Z,7144.00
2018-03-02T09:56:33.254Z,7088.00
2018-03-02T09:57:33.267Z,7236.00
2018-03-02T09:58:33.274Z,7316.00
2018-03-02T09:59:33.286Z,7360.00
2018-03-02T10:00:33.286Z,7232.00
2018-03-02T10:01:33.288Z,7312.00
2018-03-02T10:02:33.299Z,7316.00
2018-03-02T10:03:33.291Z,7296.00
2018-03-02T10:04:33.344Z,7368.00
2018-03-02T10:05:33.318Z,7240.00
2018-03-02T10:06:33.308Z,7260.00
2018-03-02T10:07:33.321Z,7200.00
2018-03-02T10:08:33.329Z,7220.00
2018-03-02T10:09:33.324Z,7232.00
2018-03-02T10:10:33.335Z,7140.00
2018-03-02T10:11:33.414Z,7140.00
2018-03-02T10:12:33.357Z,7364.00
2018-03-02T10:13:33.349Z,7396.00
2018-03-02T10:14:33.354Z,7400.00
2018-03-02T10:15:33.371Z,7456.00
2018-03-02T10:16:33.374Z,7372.00
2018-03-02T10:17:33.365Z,7440.00
2018-03-02T10:18:33.381Z,7292.00
2018-03-02T10:19:33.385Z,7396.00
2018-03-02T10:20:33.381Z,7448.00
2018-03-02T10:21:33.401Z,7404.00
2018-03-02T10:22:33.398Z,7568.00
2018-03-02T10:23:33.419Z,7556.00
2018-03-02T10:24:33.407Z,7528.00
2018-03-02T10:25:33.416Z,7472.00
2018-03-02T10:26:33.421Z,7436.00
2018-03-02T10:27:33.423Z,7528.00
2018-03-02T10:28:33.430Z,7572.00
2018-03-02T10:29:33.441Z,7612.00
2018-03-02T10:30:33.462Z,7480.00
2018-03-02T10:31:33.443Z,7444.00
2018-03-02T10:32:33.458Z,7532.00
2018-03-02T10:33:33.464Z,7648.00
2018-03-02T10:34:33.466Z,7576.00
2018-03-02T10:35:33.467Z,7428.00
2018-03-02T10:36:33.476Z,7436.00
2018-03-02T10:37:33.481Z,7492.00
2018-03-02T10:38:33.499Z,7460.00
2018-03-02T10:39:33.490Z,7596.00
2018-03-02T10:40:33.498Z,7668.00
2018-03-02T10:41:33.544Z,7668.00
2018-03-02T10:42:33.519Z,7612.00
2018-03-02T10:43:33.516Z,7648.00
2018-03-02T10:44:33.523Z,7720.00
2018-03-02T10:45:33.529Z,7844.00
2018-03-02T10:46:33.540Z,7868.00
2018-03-02T10:47:33.534Z,7700.00
2018-03-02T10:48:33.545Z,7712.00
2018-03-02T10:49:33.555Z,7632.00
2018-03-02T10:50:33.561Z,7668.00
2018-03-02T10:51:33.562Z,7708.00
2018-03-02T10:52:33.584Z,7748.00
2018-03-02T10:53:33.576Z,7752.00
2018-03-02T10:54:33.585Z,7756.00
2018-03-02T10:55:33.579Z,7836.00
2018-03-02T10:56:33.587Z,7824.00
2018-03-02T10:57:33.606Z,7840.00
2018-03-02T10:58:33.604Z,7956.00
2018-03-02T10:59:33.610Z,7944.00
2018-03-02T11:00:33.620Z,7884.00
2018-03-02T11:01:33.620Z,7736.00
2018-03-02T11:02:33.635Z,7716.00
2018-03-02T11:03:33.643Z,7828.00
2018-03-02T11:04:33.638Z,7892.00
2018-03-02T11:05:33.652Z,7848.00
2018-03-02T11:06:33.671Z,7704.00
2018-03-02T11:07:33.664Z,7716.00
2018-03-02T11:08:33.661Z,7700.00
2018-03-02T11:09:33.669Z,7648.00
2018-03-02T11:10:33.683Z,7688.00
2018-03-02T11:11:33.685Z,7632.00
2018-03-02T11:12:33.683Z,7648.00
2018-03-02T11:13:33.694Z,7696.00
2018-03-02T11:14:33.700Z,7708.00
2018-03-02T11:15:33.725Z,7644.00
2018-03-02T11:16:33.723Z,7704.00
2018-03-02T11:17:33.718Z,7680.00
2018-03-02T11:18:33.723Z,7736.00
2018-03-02T11:19:33.731Z,7724.00
2018-03-02T11:20:33.737Z,7732.00
2018-03-02T11:21:33.754Z,7704.00
2018-03-02T11:22:33.759Z,7724.00
2018-03-02T11:23:33.762Z,7676.00
2018-03-02T11:24:33.773Z,7680.00
2018-03-02T11:25:33.775Z,7740.00
2018-03-02T11:26:33.788Z,7772.00
2018-03-02T11:27:33.775Z,7772.00
2018-03-02T11:28:33.785Z,7852.00
2018-03-02T11:29:33.804Z,7820.00
2018-03-02T11:30:33.805Z,7764.00
2018-03-02T11:31:33.820Z,7644.00
2018-03-02T11:32:33.813Z,7540.00
2018-03-02T11:33:33.819Z,7544.00
2018-03-02T11:34:33.834Z,7640.00
2018-03-02T11:35:33.843Z,7688.00
2018-03-02T11:36:33.843Z,7696.00
2018-03-02T11:37:33.844Z,7756.00
2018-03-02T11:38:33.849Z,7668.00
2018-03-02T11:39:33.864Z,7680.00
2018-03-02T11:40:33.877Z,7708.00
2018-03-02T11:41:33.877Z,7712.00
2018-03-02T11:42:33.877Z,7652.00
2018-03-02T11:43:33.881Z,7636.00
2018-03-02T11:44:33.889Z,7628.00
2018-03-02T11:45:33.902Z,7624.00
2018-03-02T11:46:33.906Z,7648.00
2018-03-02T11:47:33.919Z,7636.00
2018-03-02T11:48:33.916Z,7668.00
2018-03-02T11:49:33.921Z,7624.00
2018-03-02T11:50:33.937Z,7544.00
2018-03-02T11:51:33.947Z,7580.00
2018-03-02T11:52:33.951Z,7540.00
2018-03-02T11:53:33.962Z,7520.00
2018-03-02T11:54:33.953Z,7540.00
2018-03-02T11:55:33.970Z,7544.00
2018-03-02T11:56:33.975Z,7608.00
2018-03-02T11:57:33.980Z,7648.00
2018-03-02T11:58:33.994Z,7600.00
2018-03-02T11:59:33.991Z,7572.00
2018-03-02T12:00:33.995Z,7496.00
2018-03-02T12:01:34.009Z,7452.00
2018-03-02T12:02:34.012Z,7412.00
2018-03-02T12:03:34.026Z,7444.00
2018-03-02T12:04:34.035Z,7420.00
2018-03-02T12:05:34.028Z,7328.00
2018-03-02T12:06:34.039Z,7276.00
2018-03-02T12:07:34.042Z,7280.00
2018-03-02T12:08:34.053Z,7264.00
2018-03-02T12:09:34.078Z,7272.00
2018-03-02T12:10:34.074Z,7260.00
2018-03-02T12:11:34.074Z,7184.00
2018-03-02T12:12:34.088Z,7128.00
2018-03-02T12:13:34.086Z,7080.00
2018-03-02T12:14:34.109Z,7052.00
2018-03-02T12:15:34.118Z,6968.00
2018-03-02T12:16:34.114Z,6972.00
2018-03-02T12:17:34.112Z,6900.00
2018-03-02T12:18:34.119Z,6944.00
2018-03-02T12:19:34.134Z,7068.00
2018-03-02T12:20:34.142Z,7132.00
2018-03-02T12:21:34.143Z,7120.00
2018-03-02T12:22:34.222Z,7088.00
2018-03-02T12:23:34.164Z,7060.00
2018-03-02T12:24:34.159Z,7016.00
2018-03-02T12:25:34.172Z,6928.00
2018-03-02T12:26:34.175Z,6804.00
2018-03-02T12:27:34.190Z,6736.00
2018-03-02T12:28:34.210Z,6752.00
2018-03-02T12:29:34.208Z,6780.00
2018-03-02T12:30:34.208Z,6784.00
2018-03-02T12:31:34.207Z,6776.00
2018-03-02T12:32:34.222Z,6792.00
2018-03-02T12:33:34.230Z,6844.00
2018-03-02T12:34:34.239Z,6848.00
2018-03-02T12:35:34.246Z,6932.00
2018-03-02T12:36:34.271Z,6912.00
2018-03-02T12:37:34.254Z,6848.00